Time;durP1;ratioP1;P1;durP2;ratioP2;P2;SDS_P1;SDS_P2;PMS_P1;PMS_P2;Temp;Humidity;BMP_temperature;BMP_pressure;BME280_temperature;BME280_humidity;BME280_pressure;Samples;Min_cycle;Max_cycle;Signal;HPM_P1;HPM_P2
2023/08/05 00:01:33;;;;;;;3.97;3.53;;;19.30;99.90;;;;;;5033276;28;20469;-61
2023/08/05 00:04:01;;;;;;;3.70;3.50;;;19.30;99.90;;;;;;5033568;28;20427;-61
2023/08/05 00:06:28;;;;;;;5.93;3.73;;;19.30;99.90;;;;;;5033424;28;20445;-61
2023/08/05 00:08:55;;;;;;;4.13;3.80;;;19.30;99.90;;;;;;5033060;28;20482;-61
2023/08/05 00:11:22;;;;;;;5.50;3.70;;;19.30;99.90;;;;;;5033360;28;20463;-61
2023/08/05 00:13:48;;;;;;;4.60;3.57;;;19.30;99.90;;;;;;5033356;28;20454;-61
2023/08/05 00:16:15;;;;;;;3.90;3.47;;;19.20;99.90;;;;;;5033039;28;20453;-61
2023/08/05 00:18:42;;;;;;;4.63;3.87;;;19.10;99.90;;;;;;5033007;28;20796;-61
2023/08/05 00:21:10;;;;;;;6.03;3.80;;;19.10;99.90;;;;;;5033185;28;20462;-61
2023/08/05 00:23:36;;;;;;;4.87;3.93;;;18.90;99.90;;;;;;5033299;28;20492;-61
2023/08/05 00:26:03;;;;;;;4.83;3.47;;;18.90;99.90;;;;;;5036369;28;20446;-61
2023/08/05 00:28:29;;;;;;;4.87;3.50;;;18.90;99.90;;;;;;5037315;28;20486;-61
2023/08/05 00:30:56;;;;;;;3.67;3.37;;;18.90;99.90;;;;;;5037308;28;20477;-61
2023/08/05 00:33:23;;;;;;;5.33;3.40;;;18.90;99.90;;;;;;5037260;28;20446;-61
2023/08/05 00:35:49;;;;;;;7.90;3.80;;;18.90;99.90;;;;;;5037307;28;20449;-61
2023/08/05 00:38:17;;;;;;;4.00;3.60;;;18.80;99.90;;;;;;5037174;28;20448;-61
2023/08/05 00:40:44;;;;;;;4.10;3.33;;;18.80;99.90;;;;;;5037128;28;20462;-61
2023/08/05 00:43:11;;;;;;;12.37;3.83;;;18.80;99.90;;;;;;5037185;28;20442;-61
2023/08/05 00:45:37;;;;;;;6.00;4.20;;;18.80;99.90;;;;;;5036790;28;20940;-61
2023/08/05 00:48:04;;;;;;;3.67;3.03;;;18.80;99.90;;;;;;5036965;28;20478;-61
2023/08/05 00:50:33;;;;;;;4.47;4.00;;;18.80;99.90;;;;;;5036926;28;20850;-61
2023/08/05 00:53:00;;;;;;;5.50;3.77;;;18.80;99.90;;;;;;5036941;28;20438;-61
2023/08/05 00:55:28;;;;;;;3.73;3.43;;;18.80;99.90;;;;;;5036882;28;20443;-61
2023/08/05 00:57:55;;;;;;;5.47;3.30;;;18.80;99.90;;;;;;5036926;28;20450;-61
2023/08/05 01:00:21;;;;;;;4.60;3.20;;;18.80;99.90;;;;;;5036680;28;20485;-61
2023/08/05 01:02:48;;;;;;;4.23;3.60;;;18.80;99.90;;;;;;5036612;28;20450;-61
2023/08/05 01:05:15;;;;;;;4.40;3.60;;;18.70;99.90;;;;;;5036902;28;20446;-61
2023/08/05 01:07:43;;;;;;;5.43;4.27;;;18.70;99.90;;;;;;5036665;28;20450;-61
2023/08/05 01:10:10;;;;;;;4.83;4.40;;;18.70;99.90;;;;;;5036203;28;20838;-61
2023/08/05 01:12:39;;;;;;;4.13;3.47;;;18.70;99.90;;;;;;5036564;28;20450;-61
2023/08/05 01:15:06;;;;;;;7.57;3.93;;;18.60;99.90;;;;;;5036591;28;20446;-61
2023/08/05 01:17:33;;;;;;;4.30;3.90;;;18.50;99.90;;;;;;5036453;28;20450;-61
2023/08/05 01:20:01;;;;;;;4.13;3.70;;;18.40;99.90;;;;;;5036082;28;20457;-61
2023/08/05 01:22:40;;;;;;;4.33;3.90;;;18.30;99.90;;;;;;5036329;28;20438;-61
2023/08/05 01:25:08;;;;;;;4.87;3.50;;;18.30;99.90;;;;;;5036110;28;20441;-61
2023/08/05 01:27:37;;;;;;;4.53;4.03;;;18.30;99.90;;;;;;5036256;28;20442;-61
2023/08/05 01:30:05;;;;;;;8.77;4.10;;;18.40;99.90;;;;;;5035923;28;21007;-61
2023/08/05 01:32:36;;;;;;;4.80;3.73;;;18.40;99.90;;;;;;5035890;28;20801;-61
2023/08/05 01:35:02;;;;;;;4.53;3.73;;;18.40;99.90;;;;;;5035846;28;20814;-61
2023/08/05 01:37:29;;;;;;;4.83;3.83;;;18.50;99.90;;;;;;5035482;28;20449;-61
2023/08/05 01:39:56;;;;;;;4.10;3.70;;;18.40;99.90;;;;;;5036272;28;20463;-62
2023/08/05 01:42:22;;;;;;;6.40;3.50;;;18.40;99.90;;;;;;5035910;28;20810;-61
2023/08/05 01:44:50;;;;;;;3.60;3.20;;;18.40;99.90;;;;;;5036127;28;20443;-61
2023/08/05 01:47:17;;;;;;;3.97;3.50;;;18.40;99.90;;;;;;5036006;28;20465;-61
2023/08/05 01:49:44;;;;;;;6.17;3.60;;;18.30;99.90;;;;;;5035761;28;20490;-62
2023/08/05 01:52:10;;;;;;;12.50;4.10;;;18.30;99.90;;;;;;5035846;28;20446;-61
2023/08/05 01:54:37;;;;;;;4.00;3.47;;;18.30;99.90;;;;;;5035935;28;20447;-61
2023/08/05 01:57:04;;;;;;;4.93;3.70;;;18.30;99.90;;;;;;5035973;28;20972;-62
2023/08/05 01:59:31;;;;;;;3.53;3.23;;;18.40;99.90;;;;;;5036167;28;20446;-61
2023/08/05 02:01:59;;;;;;;3.50;3.20;;;18.30;99.90;;;;;;5035786;28;20462;-61
2023/08/05 02:04:25;;;;;;;5.03;3.00;;;18.30;99.90;;;;;;5035842;28;20450;-61
2023/08/05 02:06:52;;;;;;;3.27;2.97;;;18.30;99.90;;;;;;5035967;28;20442;-61
2023/08/05 02:09:19;;;;;;;6.90;3.40;;;18.30;99.90;;;;;;5035265;28;21022;-60
2023/08/05 02:11:46;;;;;;;4.87;3.30;;;18.30;99.90;;;;;;5035569;28;20442;-60
2023/08/05 02:14:12;;;;;;;5.83;3.60;;;18.30;99.90;;;;;;5035168;28;20968;-60
2023/08/05 02:16:39;;;;;;;4.20;3.70;;;18.30;99.90;;;;;;5035403;28;20446;-60
2023/08/05 02:19:07;;;;;;;3.40;3.10;;;18.20;99.90;;;;;;5035434;28;20450;-61
2023/08/05 02:21:34;;;;;;;5.30;3.53;;;18.20;99.90;;;;;;5035622;28;20467;-60
2023/08/05 02:24:01;;;;;;;4.40;3.53;;;18.20;99.90;;;;;;5035392;28;20824;-60
2023/08/05 02:26:27;;;;;;;5.00;3.07;;;18.20;99.90;;;;;;5035182;28;20455;-61
2023/08/05 02:28:54;;;;;;;4.60;3.70;;;18.10;99.90;;;;;;5035065;28;20478;-61
2023/08/05 02:31:21;;;;;;;4.27;3.80;;;18.10;99.90;;;;;;5035065;28;20837;-61
2023/08/05 02:33:47;;;;;;;6.57;4.23;;;18.00;99.90;;;;;;5035090;28;20443;-61
2023/08/05 02:36:15;;;;;;;7.60;4.70;;;17.90;99.90;;;;;;5034767;28;20863;-61
2023/08/05 02:38:42;;;;;;;6.73;4.60;;;17.90;99.90;;;;;;5035043;28;20808;-61
2023/08/05 02:41:09;;;;;;;6.80;4.30;;;17.80;99.90;;;;;;5034595;28;20985;-61
2023/08/05 02:43:36;;;;;;;8.63;3.80;;;17.90;99.90;;;;;;5034591;28;20948;-61
2023/08/05 02:46:03;;;;;;;4.80;3.53;;;17.80;99.90;;;;;;5034766;28;20450;-61
2023/08/05 02:48:29;;;;;;;4.53;4.13;;;17.80;99.90;;;;;;5033712;28;20478;-61
2023/08/05 02:50:57;;;;;;;4.60;4.20;;;17.80;99.90;;;;;;5034685;28;20474;-61
2023/08/05 02:53:25;;;;;;;8.50;4.60;;;17.80;99.90;;;;;;5034404;28;20447;-61
2023/08/05 02:55:52;;;;;;;5.00;4.60;;;17.70;99.90;;;;;;5034315;28;20508;-61
2023/08/05 02:58:19;;;;;;;6.47;4.80;;;17.70;99.90;;;;;;5034245;28;20948;-61
2023/08/05 03:00:46;;;;;;;4.83;4.37;;;17.70;99.90;;;;;;5034504;28;20509;-61
2023/08/05 03:03:14;;;;;;;8.87;4.53;;;17.70;99.90;;;;;;5034119;28;20477;-61
2023/08/05 03:05:40;;;;;;;5.00;4.40;;;17.70;99.90;;;;;;5034735;28;20439;-61
2023/08/05 03:08:07;;;;;;;4.63;4.23;;;17.70;99.90;;;;;;5034210;28;20936;-61
2023/08/05 03:10:35;;;;;;;4.77;4.37;;;17.60;99.90;;;;;;5034269;28;20482;-61
2023/08/05 03:13:02;;;;;;;5.90;4.67;;;17.60;99.90;;;;;;5033971;28;20931;-61
2023/08/05 03:15:29;;;;;;;5.70;4.00;;;17.50;99.90;;;;;;5034319;28;20449;-61
2023/08/05 03:17:56;;;;;;;4.43;4.03;;;17.50;99.90;;;;;;5033977;28;20442;-61
2023/08/05 03:20:27;;;;;;;5.40;4.20;;;17.50;99.90;;;;;;5034100;28;20460;-61
2023/08/05 03:22:54;;;;;;;5.00;4.60;;;17.40;99.80;;;;;;5034206;28;20518;-61
2023/08/05 03:25:21;;;;;;;5.70;5.20;;;17.50;99.90;;;;;;5033775;28;20824;-61
2023/08/05 03:27:50;;;;;;;8.73;4.83;;;17.50;99.90;;;;;;5033725;28;20960;-61
2023/08/05 03:30:17;;;;;;;6.03;5.50;;;17.50;99.90;;;;;;5033605;28;20856;-61
2023/08/05 03:32:44;;;;;;;6.23;4.90;;;17.50;99.90;;;;;;5033999;28;20443;-61
2023/08/05 03:35:10;;;;;;;5.73;5.13;;;17.50;99.90;;;;;;5033857;28;20936;-61
2023/08/05 03:37:37;;;;;;;5.30;4.73;;;17.50;99.90;;;;;;5033649;28;20796;-61
2023/08/05 03:40:04;;;;;;;6.43;5.00;;;17.50;99.90;;;;;;5033480;28;20807;-61
2023/08/05 03:42:31;;;;;;;7.60;5.10;;;17.40;99.90;;;;;;5033900;28;20458;-61
2023/08/05 03:44:59;;;;;;;8.77;5.10;;;17.40;99.90;;;;;;5033877;28;20450;-61
2023/08/05 03:47:26;;;;;;;6.73;5.60;;;17.40;99.90;;;;;;5033810;28;20446;-62
2023/08/05 03:49:53;;;;;;;8.03;6.53;;;17.40;99.90;;;;;;5033533;28;20493;-62
2023/08/05 03:52:20;;;;;;;6.07;5.47;;;17.40;99.90;;;;;;5033660;28;20446;-62
2023/08/05 03:54:46;;;;;;;7.50;6.10;;;17.40;99.90;;;;;;5033961;28;20443;-62
2023/08/05 03:57:13;;;;;;;6.03;5.53;;;17.30;99.90;;;;;;5033471;28;20458;-62
2023/08/05 03:59:40;;;;;;;7.47;5.77;;;17.30;99.90;;;;;;5033407;28;20442;-62
2023/08/05 04:02:08;;;;;;;7.67;6.90;;;17.20;99.90;;;;;;5033366;28;20451;-62
2023/08/05 04:04:36;;;;;;;10.27;7.33;;;17.20;99.90;;;;;;5034126;28;20443;-62
2023/08/05 04:07:03;;;;;;;6.93;6.23;;;17.20;99.90;;;;;;5033512;28;20447;-62
2023/08/05 04:09:31;;;;;;;7.10;6.40;;;17.20;99.90;;;;;;5033296;28;20489;-62
2023/08/05 04:12:00;;;;;;;13.70;6.57;;;17.20;99.90;;;;;;5033149;28;20451;-62
2023/08/05 04:14:27;;;;;;;6.70;5.97;;;17.20;99.90;;;;;;5033446;28;20454;-62
2023/08/05 04:16:55;;;;;;;8.73;6.17;;;17.20;99.90;;;;;;5033177;28;20446;-62
2023/08/05 04:19:23;;;;;;;7.60;6.87;;;17.20;99.90;;;;;;5032965;28;20457;-63
2023/08/05 04:21:52;;;;;;;7.93;5.60;;;17.20;99.90;;;;;;5033476;28;20450;-62
2023/08/05 04:24:19;;;;;;;8.57;6.60;;;17.30;99.90;;;;;;5033340;28;20446;-62
2023/08/05 04:26:46;;;;;;;8.77;6.40;;;17.30;99.90;;;;;;5033233;28;20450;-62
2023/08/05 04:29:17;;;;;;;6.30;5.80;;;17.30;99.90;;;;;;5033451;28;20486;-62
2023/08/05 04:31:43;;;;;;;7.50;6.00;;;17.40;99.90;;;;;;5033171;28;20469;-62
2023/08/05 04:34:10;;;;;;;6.33;5.50;;;17.40;99.90;;;;;;5033291;28;20546;-62
2023/08/05 04:36:38;;;;;;;5.97;5.37;;;17.40;99.90;;;;;;5033265;28;20458;-62
2023/08/05 04:39:06;;;;;;;6.40;5.80;;;17.40;99.90;;;;;;5033194;28;20469;-62
2023/08/05 04:41:33;;;;;;;6.63;5.93;;;17.40;99.90;;;;;;5033137;28;20557;-62
2023/08/05 04:43:59;;;;;;;9.50;5.50;;;17.40;99.90;;;;;;5033195;28;20446;-60
2023/08/05 04:46:26;;;;;;;9.67;5.70;;;17.50;99.90;;;;;;5033107;28;20452;-60
2023/08/05 04:48:53;;;;;;;6.53;6.00;;;17.50;99.90;;;;;;5033051;28;20457;-60
2023/08/05 04:51:19;;;;;;;6.97;5.67;;;17.50;99.90;;;;;;5033034;28;20462;-60
2023/08/05 04:53:47;;;;;;;12.83;6.73;;;17.50;99.90;;;;;;5033335;28;20816;-61
2023/08/05 04:56:14;;;;;;;6.93;6.23;;;17.50;99.90;;;;;;5032996;28;20446;-61
2023/08/05 04:58:41;;;;;;;8.90;5.37;;;17.50;99.90;;;;;;5033112;28;20453;-61
2023/08/05 05:01:07;;;;;;;11.30;5.93;;;17.50;99.90;;;;;;5032931;28;20470;-61
2023/08/05 05:03:34;;;;;;;5.87;5.27;;;17.50;99.90;;;;;;5033175;28;20464;-61
2023/08/05 05:06:01;;;;;;;8.57;5.83;;;17.50;99.90;;;;;;5032963;28;20487;-62
2023/08/05 05:08:30;;;;;;;9.33;6.40;;;17.40;99.90;;;;;;5033067;28;20439;-61
2023/08/05 05:10:58;;;;;;;6.97;5.67;;;17.40;99.90;;;;;;5032712;28;20482;-61
2023/08/05 05:13:25;;;;;;;6.73;5.70;;;17.30;99.90;;;;;;5036259;28;20438;-61
2023/08/05 05:15:52;;;;;;;7.20;6.20;;;17.30;99.90;;;;;;5036581;28;20478;-61
2023/08/05 05:18:19;;;;;;;8.37;5.30;;;17.30;99.90;;;;;;5036646;28;20451;-61
2023/08/05 05:20:50;;;;;;;6.03;5.47;;;17.40;99.90;;;;;;5036537;28;20490;-60
2023/08/05 05:23:17;;;;;;;6.67;5.97;;;17.40;99.90;;;;;;5036459;28;20488;-60
2023/08/05 05:25:44;;;;;;;7.97;6.40;;;17.50;99.90;;;;;;5036484;28;20438;-61
2023/08/05 05:28:12;;;;;;;10.67;6.10;;;17.50;99.90;;;;;;5036527;28;20469;-60
2023/08/05 05:30:38;;;;;;;8.40;6.10;;;17.50;99.90;;;;;;5036294;28;20501;-60
2023/08/05 05:33:05;;;;;;;9.17;6.67;;;17.50;99.90;;;;;;5036291;28;20455;-60
2023/08/05 05:35:32;;;;;;;7.50;6.67;;;17.50;99.90;;;;;;5036490;28;20446;-60
2023/08/05 05:37:59;;;;;;;10.10;7.73;;;17.60;99.90;;;;;;5035997;28;20492;-61
2023/08/05 05:40:25;;;;;;;12.13;7.67;;;17.60;99.90;;;;;;5035887;28;20469;-62
2023/08/05 05:42:52;;;;;;;9.13;7.27;;;17.70;99.90;;;;;;5036303;28;20442;-61
2023/08/05 05:45:21;;;;;;;8.27;6.60;;;17.80;99.90;;;;;;5036412;28;20469;-60
2023/08/05 05:47:48;;;;;;;14.00;6.77;;;17.80;99.90;;;;;;5036080;28;20445;-60
2023/08/05 05:50:16;;;;;;;7.77;7.03;;;17.90;99.90;;;;;;5036194;28;20523;-61
2023/08/05 05:52:43;;;;;;;8.47;7.30;;;17.90;99.90;;;;;;5036172;28;20540;-60
2023/08/05 05:55:09;;;;;;;11.30;6.90;;;18.00;99.90;;;;;;5036150;28;20439;-61
2023/08/05 05:57:36;;;;;;;10.70;6.97;;;18.00;99.90;;;;;;5036170;28;20450;-61
2023/08/05 06:00:04;;;;;;;10.80;7.47;;;18.00;99.90;;;;;;5035974;28;20505;-61
2023/08/05 06:02:33;;;;;;;7.27;6.63;;;18.10;99.90;;;;;;5035936;28;20554;-61
2023/08/05 06:05:00;;;;;;;9.93;6.03;;;18.10;99.90;;;;;;5036302;28;20459;-61
2023/08/05 06:07:27;;;;;;;8.30;7.03;;;18.10;99.90;;;;;;5036128;28;20443;-61
2023/08/05 06:09:54;;;;;;;6.93;6.10;;;18.10;99.90;;;;;;5035583;28;20482;-61
2023/08/05 06:12:22;;;;;;;8.03;7.23;;;18.10;99.90;;;;;;5035698;28;20450;-61
2023/08/05 06:14:49;;;;;;;13.70;8.40;;;18.10;99.90;;;;;;5036141;28;20493;-61
2023/08/05 06:17:17;;;;;;;8.10;7.33;;;18.20;99.90;;;;;;5035901;28;20820;-61
2023/08/05 06:19:45;;;;;;;11.70;7.20;;;18.20;99.90;;;;;;5035846;28;21004;-61
2023/08/05 06:22:12;;;;;;;13.70;7.50;;;18.20;99.90;;;;;;5036347;28;20442;-61
2023/08/05 06:24:38;;;;;;;7.03;6.30;;;18.20;99.90;;;;;;5036730;28;20813;-61
2023/08/05 06:27:06;;;;;;;9.10;6.80;;;18.30;99.90;;;;;;5036802;28;20442;-61
2023/08/05 06:29:33;;;;;;;13.03;7.27;;;18.40;99.90;;;;;;5036517;28;20446;-61
2023/08/05 06:31:59;;;;;;;7.53;6.83;;;18.40;99.90;;;;;;5036317;28;20450;-61
2023/08/05 06:34:26;;;;;;;7.07;6.37;;;18.40;99.90;;;;;;5036964;28;20446;-61
2023/08/05 06:36:54;;;;;;;7.77;7.03;;;18.50;99.90;;;;;;5037680;28;20446;-61
2023/08/05 06:39:21;;;;;;;8.30;6.93;;;18.60;99.90;;;;;;5038306;28;20443;-61
2023/08/05 06:41:48;;;;;;;11.57;7.87;;;18.70;99.90;;;;;;5038113;28;20449;-61
2023/08/05 06:44:14;;;;;;;9.30;6.67;;;18.70;99.90;;;;;;5037678;28;20449;-61
2023/08/05 06:46:41;;;;;;;8.13;6.90;;;18.80;99.90;;;;;;5035619;28;20451;-61
2023/08/05 06:49:09;;;;;;;9.27;7.00;;;18.90;99.90;;;;;;5034860;28;20439;-61
2023/08/05 06:51:37;;;;;;;10.40;6.50;;;19.00;99.90;;;;;;5034492;28;20536;-62
2023/08/05 06:54:05;;;;;;;8.10;6.60;;;19.10;99.90;;;;;;5034784;28;20501;-61
2023/08/05 06:56:32;;;;;;;10.80;6.90;;;19.20;99.90;;;;;;5034820;28;20469;-61
2023/08/05 06:58:58;;;;;;;7.77;6.97;;;19.40;99.90;;;;;;5034589;28;20454;-61
2023/08/05 07:01:25;;;;;;;8.27;7.27;;;19.50;99.90;;;;;;5034370;28;20462;-61
2023/08/05 07:03:52;;;;;;;8.57;6.73;;;19.50;99.60;;;;;;5034511;28;20453;-61
2023/08/05 07:06:19;;;;;;;7.10;5.67;;;19.60;99.60;;;;;;5034206;28;21016;-61
2023/08/05 07:08:45;;;;;;;9.00;6.90;;;19.70;99.30;;;;;;5034381;28;20446;-61
2023/08/05 07:11:13;;;;;;;8.13;6.60;;;19.80;99.00;;;;;;5034311;28;20494;-61
2023/08/05 07:13:40;;;;;;;7.47;5.30;;;20.00;98.60;;;;;;5034195;28;20462;-61
2023/08/05 07:16:07;;;;;;;7.37;5.40;;;20.10;97.90;;;;;;5034435;28;20878;-61
2023/08/05 07:18:34;;;;;;;6.93;5.57;;;20.20;97.80;;;;;;5034186;28;20870;-61
2023/08/05 07:21:01;;;;;;;10.43;5.73;;;20.30;97.60;;;;;;5034098;28;20467;-61
2023/08/05 07:23:27;;;;;;;7.73;4.80;;;20.40;97.10;;;;;;5034083;28;20450;-61
2023/08/05 07:25:54;;;;;;;5.40;4.57;;;20.60;96.70;;;;;;5034162;28;20442;-61
2023/08/05 07:28:22;;;;;;;5.80;4.40;;;20.80;96.40;;;;;;5031956;28;20462;-61
2023/08/05 07:30:49;;;;;;;7.67;5.20;;;20.90;96.20;;;;;;5033927;28;20493;-61
2023/08/05 07:33:17;;;;;;;6.30;4.93;;;21.10;95.90;;;;;;5033795;28;20443;-61
2023/08/05 07:35:43;;;;;;;6.23;4.73;;;21.20;95.50;;;;;;5033263;28;20459;-61
2023/08/05 07:38:10;;;;;;;4.93;3.60;;;21.30;95.30;;;;;;5033546;28;20450;-61
2023/08/05 07:40:37;;;;;;;4.90;4.50;;;21.50;95.10;;;;;;5033706;28;20466;-61
2023/08/05 07:43:05;;;;;;;5.93;4.50;;;21.70;94.60;;;;;;5033503;28;20541;-61
2023/08/05 07:45:35;;;;;;;4.20;3.60;;;21.90;94.00;;;;;;5033803;28;20525;-61
2023/08/05 07:48:06;;;;;;;4.13;3.60;;;22.10;93.60;;;;;;5033790;28;20446;-61
2023/08/05 07:50:33;;;;;;;7.93;4.80;;;22.40;93.20;;;;;;5033621;28;20490;-61
2023/08/05 07:53:00;;;;;;;4.07;3.70;;;22.60;92.50;;;;;;5033388;28;20446;-61
2023/08/05 07:55:32;;;;;;;4.53;4.10;;;22.70;91.40;;;;;;5033320;28;20844;-61
2023/08/05 07:57:58;;;;;;;5.33;4.80;;;22.80;91.00;;;;;;5033784;28;20427;-61
2023/08/05 08:00:26;;;;;;;5.47;4.40;;;22.80;90.90;;;;;;5033443;28;20466;-61
2023/08/05 08:02:54;;;;;;;12.10;5.00;;;22.80;90.60;;;;;;5033308;28;20868;-61
2023/08/05 08:05:21;;;;;;;6.90;5.13;;;22.80;90.90;;;;;;5034050;28;20450;-61
2023/08/05 08:07:49;;;;;;;12.50;4.20;;;22.70;90.10;;;;;;5033142;28;20822;-61
2023/08/05 08:10:17;;;;;;;5.63;4.20;;;22.60;89.80;;;;;;5033090;28;20493;-61
2023/08/05 08:12:46;;;;;;;7.03;5.07;;;22.60;90.00;;;;;;5033842;28;20508;-61
2023/08/05 08:15:12;;;;;;;5.60;4.37;;;22.50;88.50;;;;;;5033411;28;20443;-61
2023/08/05 08:17:39;;;;;;;9.43;5.20;;;22.60;89.50;;;;;;5033085;28;20944;-61
2023/08/05 08:20:08;;;;;;;6.17;4.97;;;22.60;88.70;;;;;;5032977;28;20980;-61
2023/08/05 08:22:34;;;;;;;5.33;3.93;;;22.70;88.50;;;;;;5033295;28;20447;-61
2023/08/05 08:25:02;;;;;;;5.70;5.20;;;22.80;86.90;;;;;;5032998;28;20446;-61
2023/08/05 08:27:28;;;;;;;7.00;4.50;;;22.90;86.30;;;;;;5032901;28;20945;-62
2023/08/05 08:29:55;;;;;;;5.10;4.00;;;23.00;84.80;;;;;;5033149;28;20462;-62
2023/08/05 08:32:22;;;;;;;5.60;4.37;;;23.10;84.60;;;;;;5033196;28;20446;-61
2023/08/05 08:34:48;;;;;;;5.03;3.90;;;23.30;84.50;;;;;;5033278;28;20442;-61
2023/08/05 08:37:16;;;;;;;4.47;4.07;;;23.50;83.70;;;;;;5033311;28;20446;-61
2023/08/05 08:39:43;;;;;;;4.23;3.80;;;23.70;80.80;;;;;;5033126;28;20561;-61
2023/08/05 08:42:10;;;;;;;3.20;2.90;;;23.90;80.00;;;;;;5033157;28;20442;-62
2023/08/05 08:44:38;;;;;;;5.80;2.83;;;24.00;78.70;;;;;;5033142;28;20521;-61
2023/08/05 08:47:05;;;;;;;3.53;3.00;;;24.20;75.10;;;;;;5034099;28;20819;-61
2023/08/05 08:49:35;;;;;;;2.67;2.47;;;24.30;74.20;;;;;;5037000;28;20446;-62
2023/08/05 08:52:02;;;;;;;4.10;2.93;;;24.50;71.00;;;;;;5036654;28;20862;-61
2023/08/05 08:54:31;;;;;;;2.90;2.30;;;24.50;70.30;;;;;;5036640;28;20446;-63
2023/08/05 08:56:57;;;;;;;1.60;1.50;;;24.60;69.50;;;;;;5036659;28;20940;-62
2023/08/05 08:59:24;;;;;;;1.93;1.83;;;24.70;67.60;;;;;;5037006;28;20442;-62
2023/08/05 09:01:52;;;;;;;2.00;1.80;;;24.80;64.60;;;;;;5036438;28;20940;-62
2023/08/05 09:04:21;;;;;;;2.20;2.10;;;24.90;66.70;;;;;;5036795;28;20453;-63
2023/08/05 09:06:49;;;;;;;6.43;2.43;;;25.00;65.10;;;;;;5037023;28;20434;-63
2023/08/05 09:09:15;;;;;;;3.00;2.70;;;25.00;65.90;;;;;;5036726;28;20485;-62
2023/08/05 09:11:43;;;;;;;3.53;3.00;;;24.90;65.40;;;;;;5036778;28;20486;-63
2023/08/05 09:14:14;;;;;;;9.13;3.80;;;24.90;65.30;;;;;;5036571;28;20457;-63
2023/08/05 09:16:57;;;;;;;3.83;2.63;;;24.90;65.20;;;;;;5036684;28;20442;-63
2023/08/05 09:19:25;;;;;;;6.53;3.50;;;25.10;66.30;;;;;;5036508;28;20453;-63
2023/08/05 09:21:52;;;;;;;3.17;2.97;;;25.40;63.80;;;;;;5036437;28;20474;-63
2023/08/05 09:24:23;;;;;;;3.90;3.10;;;25.30;61.90;;;;;;5036577;28;20438;-63
2023/08/05 09:26:55;;;;;;;8.00;2.87;;;25.40;66.10;;;;;;5036636;28;20431;-63
2023/08/05 09:29:25;;;;;;;2.67;2.40;;;25.40;63.80;;;;;;5036754;28;20434;-63
2023/08/05 09:32:00;;;;;;;2.97;2.47;;;25.50;63.10;;;;;;5036533;28;20489;-63
2023/08/05 09:34:34;;;;;;;2.50;2.30;;;25.60;60.60;;;;;;5038296;28;20434;-63
2023/08/05 09:37:01;;;;;;;7.77;2.37;;;25.70;59.50;;;;;;5038066;28;20962;-63
2023/08/05 09:39:43;;;;;;;11.13;3.90;;;25.90;58.90;;;;;;5037111;28;20450;-63
2023/08/05 09:42:19;;;;;;;2.50;2.27;;;26.00;57.80;;;;;;5036587;28;20460;-63
2023/08/05 09:44:46;;;;;;;2.83;2.30;;;25.90;57.00;;;;;;5036260;28;20426;-63
2023/08/05 09:47:17;;;;;;;2.80;2.50;;;25.90;57.60;;;;;;5036418;28;20442;-63
2023/08/05 09:49:47;;;;;;;2.40;2.20;;;26.10;58.50;;;;;;5036145;28;20466;-63
2023/08/05 09:52:17;;;;;;;3.37;2.00;;;26.10;58.20;;;;;;5035929;28;20486;-63
2023/08/05 09:54:50;;;;;;;2.10;2.00;;;26.30;57.20;;;;;;5035947;28;20446;-63
2023/08/05 09:57:19;;;;;;;2.00;1.67;;;26.60;57.30;;;;;;5035229;28;20431;-63
2023/08/05 09:59:47;;;;;;;7.77;2.50;;;27.10;55.20;;;;;;5035802;28;20467;-63
2023/08/05 10:02:23;;;;;;;3.53;2.57;;;27.50;51.90;;;;;;5035764;28;20835;-63
2023/08/05 10:04:53;;;;;;;2.50;2.30;;;27.90;51.70;;;;;;5035803;28;20444;-63
2023/08/05 10:07:20;;;;;;;3.77;2.37;;;28.30;51.50;;;;;;5035780;28;20434;-63
2023/08/05 10:09:48;;;;;;;2.70;2.50;;;28.50;49.80;;;;;;5035598;28;20520;-63
2023/08/05 10:12:17;;;;;;;2.87;2.63;;;28.40;50.30;;;;;;5035153;28;21007;-63
2023/08/05 10:14:46;;;;;;;3.27;2.87;;;28.20;49.90;;;;;;5035670;28;20450;-63
2023/08/05 10:17:13;;;;;;;3.73;2.40;;;28.00;51.00;;;;;;5035546;28;20443;-63
2023/08/05 10:19:40;;;;;;;2.40;2.20;;;27.70;51.70;;;;;;5035259;28;20442;-63
2023/08/05 10:22:09;;;;;;;2.70;2.20;;;27.40;51.90;;;;;;5035501;28;20438;-63
2023/08/05 10:24:51;;;;;;;2.00;1.87;;;27.50;52.00;;;;;;5035086;28;20509;-63
2023/08/05 10:27:18;;;;;;;1.90;1.80;;;27.90;50.50;;;;;;5034471;28;20454;-63
2023/08/05 10:29:53;;;;;;;3.20;2.33;;;27.90;48.40;;;;;;5035251;28;20558;-63
2023/08/05 10:32:29;;;;;;;3.33;2.20;;;27.90;48.90;;;;;;5034855;28;20462;-63
2023/08/05 10:35:26;;;;;;;1.93;1.73;;;27.70;48.80;;;;;;5035280;28;20438;-63
2023/08/05 10:38:06;;;;;;;3.50;2.77;;;27.50;50.40;;;;;;5022481;28;20454;-63
2023/08/05 10:40:41;;;;;;;2.40;2.20;;;27.40;51.80;;;;;;5034778;28;20996;-63
2023/08/05 10:43:09;;;;;;;1.60;1.50;;;27.20;50.30;;;;;;5034915;28;20453;-62
2023/08/05 10:45:41;;;;;;;1.50;1.30;;;27.10;49.90;;;;;;5035181;28;20438;-62
2023/08/05 10:48:09;;;;;;;1.50;1.40;;;26.70;50.80;;;;;;5034641;28;20859;-62
2023/08/05 10:50:36;;;;;;;1.77;1.67;;;26.30;52.90;;;;;;5034472;28;21057;-62
2023/08/05 10:53:08;;;;;;;3.60;1.40;;;26.00;53.10;;;;;;5034516;28;20817;-62
2023/08/05 10:55:46;;;;;;;1.70;1.47;;;25.80;53.70;;;;;;5034335;28;20936;-62
2023/08/05 10:58:13;;;;;;;1.77;1.60;;;25.60;54.10;;;;;;5034795;28;20446;-62
2023/08/05 11:00:44;;;;;;;1.73;1.60;;;25.50;54.60;;;;;;5034740;28;20462;-61
2023/08/05 11:03:30;;;;;;;3.87;1.70;;;25.30;53.70;;;;;;5034246;28;20454;-62
2023/08/05 11:06:01;;;;;;;2.70;1.70;;;25.00;55.50;;;;;;5034521;28;20429;-62
2023/08/05 11:08:28;;;;;;;4.63;1.83;;;25.00;56.00;;;;;;5034719;28;20509;-62
2023/08/05 11:10:54;;;;;;;1.87;1.77;;;24.90;56.40;;;;;;5033492;28;20455;-62
2023/08/05 11:13:21;;;;;;;5.07;1.97;;;25.10;56.10;;;;;;5034386;28;20447;-62
2023/08/05 11:16:02;;;;;;;2.73;1.60;;;25.30;56.00;;;;;;5034363;28;20442;-62
2023/08/05 11:18:29;;;;;;;1.90;1.77;;;25.40;54.50;;;;;;5034244;28;20446;-62
2023/08/05 11:20:56;;;;;;;3.13;1.60;;;25.80;55.60;;;;;;5034131;28;20470;-62
2023/08/05 11:23:24;;;;;;;1.80;1.70;;;26.60;53.70;;;;;;5034229;28;20439;-62
2023/08/05 11:25:52;;;;;;;1.47;1.37;;;27.30;53.00;;;;;;5034171;28;20442;-62
2023/08/05 11:28:19;;;;;;;1.43;1.33;;;27.50;49.60;;;;;;5034353;28;20453;-61
2023/08/05 11:30:46;;;;;;;1.40;1.30;;;27.60;48.60;;;;;;5034044;28;20466;-62
2023/08/05 11:33:14;;;;;;;2.30;1.77;;;27.60;48.50;;;;;;5033623;28;20999;-62
2023/08/05 11:35:45;;;;;;;2.20;1.60;;;27.70;48.40;;;;;;5033675;28;20868;-62
2023/08/05 11:38:12;;;;;;;1.43;1.33;;;28.00;49.60;;;;;;5033907;28;20442;-62
2023/08/05 11:40:42;;;;;;;3.17;1.80;;;28.10;46.90;;;;;;5033792;28;20459;-62
2023/08/05 11:43:09;;;;;;;1.43;1.33;;;27.90;48.00;;;;;;5033892;28;20462;-62
2023/08/05 11:45:39;;;;;;;1.97;1.77;;;28.10;47.80;;;;;;5033832;28;20477;-62
2023/08/05 11:48:07;;;;;;;1.50;1.40;;;28.60;46.00;;;;;;5033789;28;20485;-62
2023/08/05 11:50:36;;;;;;;2.23;1.60;;;29.30;44.70;;;;;;5033338;28;20840;-62
2023/08/05 11:53:06;;;;;;;2.40;1.60;;;29.80;42.80;;;;;;5033586;28;20560;-62
2023/08/05 11:55:37;;;;;;;1.67;1.57;;;30.40;43.80;;;;;;5033677;28;20446;-62
2023/08/05 11:58:04;;;;;;;1.60;1.50;;;31.00;42.10;;;;;;5033571;28;20442;-62
2023/08/05 12:00:31;;;;;;;1.50;1.40;;;31.40;40.40;;;;;;5033616;28;20466;-62
2023/08/05 12:02:58;;;;;;;2.33;1.40;;;31.50;38.40;;;;;;5033289;28;20446;-62
2023/08/05 12:05:24;;;;;;;1.63;1.27;;;31.40;38.70;;;;;;5033523;28;20817;-62
2023/08/05 12:07:52;;;;;;;1.40;1.30;;;31.20;38.90;;;;;;5033692;28;20472;-62
2023/08/05 12:10:21;;;;;;;1.80;1.37;;;30.90;39.60;;;;;;5033438;28;20461;-63
2023/08/05 12:12:49;;;;;;;1.40;1.30;;;30.50;40.30;;;;;;5033307;28;20474;-62
2023/08/05 12:15:17;;;;;;;3.27;1.70;;;29.90;41.00;;;;;;5033178;28;20450;-62
2023/08/05 12:17:49;;;;;;;2.23;2.03;;;29.20;43.60;;;;;;5033419;28;20442;-62
2023/08/05 12:20:18;;;;;;;3.20;1.90;;;28.10;46.30;;;;;;5033102;28;20474;-62
2023/08/05 12:22:45;;;;;;;2.10;1.90;;;27.00;49.90;;;;;;5033450;28;20497;-61
2023/08/05 12:25:13;;;;;;;4.20;2.13;;;26.00;53.30;;;;;;5033203;28;20435;-62
2023/08/05 12:27:40;;;;;;;2.67;1.93;;;25.40;55.50;;;;;;5033211;28;20443;-61
2023/08/05 12:30:09;;;;;;;5.00;2.30;;;24.90;56.70;;;;;;5033269;28;20850;-61
2023/08/05 12:32:36;;;;;;;3.93;1.80;;;24.70;58.00;;;;;;5033412;28;20601;-60
2023/08/05 12:35:03;;;;;;;2.63;2.10;;;24.50;59.20;;;;;;5033193;28;20940;-61
2023/08/05 12:37:30;;;;;;;2.97;2.20;;;24.30;61.20;;;;;;5034322;28;20454;-60
2023/08/05 12:39:57;;;;;;;3.67;2.90;;;24.20;63.20;;;;;;5033337;28;20474;-61
2023/08/05 12:42:25;;;;;;;2.83;2.60;;;24.10;65.40;;;;;;5033116;28;20894;-61
2023/08/05 12:44:52;;;;;;;2.70;2.50;;;23.90;68.30;;;;;;5033288;28;20443;-61
2023/08/05 12:47:20;;;;;;;4.27;3.13;;;23.60;70.30;;;;;;5033156;28;20449;-61
2023/08/05 12:49:46;;;;;;;2.90;2.70;;;23.40;72.80;;;;;;5033108;28;20466;-61